Historyczne dane pomiarowe

Dodano dane terminowe – wersja testowa.

Dane z okresu 1951-2019

Wersja bazy: 1.34 [2019-03-16, lista zmian], aktualizacja planowana na 2019-04-15

Dane meteo z obszaru Polski uzyskane na podstawie danych udostępnionych przez Instytut Meteorologii i Gospodarki Wodnej – Państwowy Instytut Badawczy.

 

Wybierz Datę:    

       

TemperaturaWilgotnośćWiatrCiśnienieOpadyŚniegCzas trwania zjawisk
 Stacja t tx tn tng RH VA  wxwx mslp ppp RRR   cm mm wxwxwxwxwxwxwx
1998-01-17 3.9 5.6 2.6 -0.2 90.8- 5.3 2.0---- 6.4------------
1998-01-18 1.6 6.7 -1.6 -6.5 76.8- 2.0 2.3---- 0.0------------
1998-01-19 3.5 5.5 1.4 -2.9 63.5- 7.3 7.0---- 0.1------------
1998-01-20 3.0 5.6 1.4 -2.4 77.0- 4.7 1.3---- 0.1------------
1998-01-21 1.6 2.2 1.2 -0.3 97.0- 8.0 2.7---- 8.0------------
1998-01-22 0.3 1.6 -0.5 -1.0 96.0- 8.0 1.7---- 0.0------------
1998-01-23 -1.5 0.0 -2.5 -3.4 76.5- 8.0 1.0---- 0.0------------
1998-01-24 -2.3 -1.4 -3.2 -4.0 91.0- 8.0 0.3---- 0.0------------
1998-01-25 -2.9 -1.0 -3.8 -6.7 75.0- 3.3 0.7---- 0.0------------
1998-01-26 -5.5 -3.2 -6.5-10.0 93.8- 8.0 1.0---- 0.0------------
1998-01-27 -4.7 -0.6 -6.7-10.3 92.3- 2.7 1.0---- 0.0------------
1998-01-28 -4.8 -1.3 -8.8-13.0 87.0- 5.3 1.3---- 2.2------------
1998-01-29 -3.3 -1.0 -4.2 -8.0 93.0- 3.3 0.3---- 0.0------------
1998-01-30 -5.2 1.4-12.3-17.9 82.0- 7.3 3.7---- 2.2------------
1998-01-31 -5.7 1.0 -9.9-13.8 72.0- 5.3 1.7---- 0.1-- 4---------
1998-02-01-11.5 -4.9-14.4-21.0 73.8- 0.3 1.0---- 0.0-- 3---------
1998-02-02-10.3 -4.0-15.8-19.9 68.5- 7.3 0.3---- 0.0-- 3---------
1998-02-03 -5.3 -0.2-14.1-19.6 65.0- 3.7 5.7---- 0.2-- 2---------
1998-02-04 -0.4 4.7 -2.4-10.8 69.5- 1.7 2.0---- 0.0-- 1---------
1998-02-05 -3.3 5.5 -9.8-15.8 67.8- 3.7 0.0---- 0.0------------
1998-02-06 1.7 4.0 -1.7-12.8 78.3- 8.0 2.0---- 0.0------------
1998-02-07 3.1 9.3 0.5 -4.0 80.0- 5.0 0.7---- 0.0------------
1998-02-08 2.4 4.1 0.4 -5.5 71.5- 4.3 3.0---- 0.1------------
1998-02-09 3.2 6.5 0.4 -4.0 71.5- 7.0 1.0---- 0.0------------
1998-02-10 3.6 12.7 -0.5 -4.6 75.5- 3.0 0.0---- 0.0------------
1998-02-11 3.6 11.1 -1.1 -5.8 79.8- 5.0 0.0---- 0.0------------
1998-02-12 8.7 11.8 2.8 -2.9 65.0- 8.0 4.0---- 1.1------------
1998-02-13 8.0 11.8 5.1 4.0 92.3- 8.0 3.0---- 9.9------------
1998-02-14 9.0 12.0 4.3 2.5 90.8- 8.0 3.3---- 2.4------------
1998-02-15 10.2 12.6 8.9 6.0 93.0- 8.0 2.7---- 4.7------------
218.4 ms

 

Źródłem pochodzenia danych jest Instytut Meteorologii i Gospodarki Wodnej – Państwowy Instytut Badawczy. Dane Instytutu Meteorologii i Gospodarki Wodnej – Państwowego Instytutu Badawczego zostały przetworzone.

Dane źródłowe można odnaleźć na stronie https://dane.imgw.pl